Flinter Rose — PBUB — position and weather

sailwx.info

Track history (hours):
 
Tides and Currents Weather Stations Pressure Air Temp Water Temp Dewpoint Dewpoint Depression Visibility Wind Speed Wind Dir Waves Ship Positions

Flinter Rose

Last reported at 2017-Oct-17 02:24 UTC. Time now 2017-Oct-19 07:27 UTC.
Position N 37°38' E 025°53'.

Length 101 m; draft 5.5 m.

Type: Cargo ship. MMSI: 246227000.

Date/timePositionNaut miles runAvg speedWind from/ knotsBaromVisibWave heightAir tempDewpointWater temp
2017-Oct-17 02:24N 37°38' E 025°53'4 9.7
2017-Oct-17 02:01N 37°34' E 025°54'5 9.6
2017-Oct-17 01:31N 37°30' E 025°55'  
2017-Oct-07 20:46N 36°19' E 014°32'310.0
2017-Oct-07 20:30N 36°19' E 014°28'6 9.9
2017-Oct-07 19:56N 36°20' E 014°21'410.0
2017-Oct-07 19:30N 36°21' E 014°16'510.2
2017-Oct-07 19:00N 36°22' E 014°10'510.3
2017-Oct-07 18:30N 36°24' E 014°04'510.2
2017-Oct-07 18:00N 36°25' E 013°58'510.2
2017-Oct-07 17:30N 36°27' E 013°52'  
Track history (hours):
 
Tides and Currents Weather Stations Pressure Air Temp Water Temp Dewpoint Dewpoint Depression Visibility Wind Speed Wind Dir Waves Ship Positions

Flinter Rose

Last reported at 2017-Oct-17 02:24 UTC. Time now 2017-Oct-19 07:27 UTC.
Position N 37°38' E 025°53'.

Length 101 m; draft 5.5 m.

Type: Cargo ship. MMSI: 246227000.

Date/timePositionNaut miles runAvg speedWind from/ knotsBaromVisibWave heightAir tempDewpointWater temp
2017-Oct-17 02:24N 37°38' E 025°53'4 9.7
2017-Oct-17 02:01N 37°34' E 025°54'5 9.6
2017-Oct-17 01:31N 37°30' E 025°55'  
2017-Oct-07 20:46N 36°19' E 014°32'310.0
2017-Oct-07 20:30N 36°19' E 014°28'6 9.9
2017-Oct-07 19:56N 36°20' E 014°21'410.0
2017-Oct-07 19:30N 36°21' E 014°16'510.2
2017-Oct-07 19:00N 36°22' E 014°10'510.3
2017-Oct-07 18:30N 36°24' E 014°04'510.2
2017-Oct-07 18:00N 36°25' E 013°58'510.2
2017-Oct-07 17:30N 36°27' E 013°52'  

Dump ship's entire track history